Terminal Aerodrome Forecast
Issued by NWS Blacksburg, VA

Home | Current Version | Previous Version | Text Only | Print | Product List | Glossary On
Versions: 1 2 3 4 5 6 7 8 9 10 11 12 13 14 15 16 17 18 19 20 21 22 23 24 25 26 27 28 29 30 31 32 33
000
FTUS41 KRNK 281323 AAB
TAFBLF
TAF AMD
KBLF 281323Z 2813/2912 26003KT P6SM BKN008
     FM281500 30004KT P6SM VCSH BKN035 BKN100
     FM281700 VRB06KT P6SM VCTS BKN035CB OVC090
     FM290200 VRB03KT 4SM BR VCSH SCT004 SCT035 BKN090
     FM290800 VRB03KT 3SM BR SCT003 SCT090 BKN250
      TEMPO 2908/2912 1/4SM FG VV003=

USA.gov is the U.S. government's official web portal to all federal, state and local government web resources and services.